createdAt,value
2023-02-07T00:01:40.336Z,22.27
2023-02-07T00:06:42.069Z,22.47
2023-02-07T00:11:45.135Z,21.73
2023-02-07T00:16:46.847Z,27.23
2023-02-07T00:21:48.534Z,22.60
2023-02-07T00:26:52.313Z,23.60
2023-02-07T00:31:54.018Z,21.20
2023-02-07T00:36:55.945Z,27.60
2023-02-07T00:41:58.987Z,27.80
2023-02-07T00:47:00.666Z,22.75
2023-02-07T00:52:02.373Z,27.70
2023-02-07T00:57:05.457Z,22.00
2023-02-07T01:02:07.165Z,24.13
2023-02-07T01:07:09.540Z,26.50
2023-02-07T01:12:12.650Z,22.63
2023-02-07T01:17:14.322Z,25.50
2023-02-07T01:22:16.003Z,24.83
2023-02-07T01:27:19.023Z,24.20
2023-02-07T01:32:20.799Z,22.80
2023-02-07T01:37:22.611Z,22.50
2023-02-07T01:42:27.053Z,22.10
2023-02-07T01:47:28.735Z,23.37
2023-02-07T01:52:33.137Z,25.20
2023-02-07T01:57:36.169Z,23.23
2023-02-07T02:02:37.906Z,28.10
2023-02-07T02:07:39.635Z,26.00
2023-02-07T02:12:53.248Z,26.83
2023-02-07T02:18:08.916Z,28.08
2023-02-07T02:23:18.446Z,27.33
2023-02-07T02:28:55.197Z,31.77
2023-02-07T02:33:59.310Z,27.17
2023-02-07T02:39:03.472Z,31.03
2023-02-07T02:44:07.715Z,29.27
2023-02-07T02:49:11.803Z,26.23
2023-02-07T02:54:30.102Z,28.90
2023-02-07T03:00:12.946Z,28.50
2023-02-07T03:05:24.218Z,25.77
2023-02-07T03:10:30.290Z,26.07
2023-02-07T03:15:34.747Z,29.07
2023-02-07T03:20:39.060Z,28.67
2023-02-07T03:25:40.811Z,27.60
2023-02-07T03:30:43.992Z,31.00
2023-02-07T03:35:49.393Z,28.90
2023-02-07T03:40:53.793Z,29.30
2023-02-07T03:45:55.649Z,29.10
2023-02-07T03:50:58.719Z,27.20
2023-02-07T03:56:00.437Z,32.97
2023-02-07T04:01:02.135Z,32.17
2023-02-07T04:06:06.379Z,32.10
2023-02-07T04:11:08.098Z,29.70
2023-02-07T04:16:09.840Z,32.20
2023-02-07T04:21:12.900Z,33.03
2023-02-07T04:26:14.556Z,33.80
2023-02-07T04:31:16.352Z,35.13
2023-02-07T04:36:19.420Z,29.93
2023-02-07T04:41:21.097Z,29.87
2023-02-07T04:46:22.779Z,33.60
2023-02-07T04:51:26.025Z,35.40
2023-02-07T04:56:27.781Z,35.03
2023-02-07T05:01:29.587Z,33.53
2023-02-07T05:06:32.658Z,32.50
2023-02-07T05:11:34.409Z,39.43
2023-02-07T05:16:36.088Z,38.40
2023-02-07T05:21:39.224Z,38.23
2023-02-07T05:26:40.899Z,39.47
2023-02-07T05:32:01.176Z,44.43
2023-02-07T05:37:04.146Z,72.50
2023-02-07T05:42:05.872Z,53.22
2023-02-07T05:47:07.525Z,45.30
2023-02-07T05:52:10.566Z,43.33
2023-02-07T05:57:12.246Z,49.33
2023-02-07T06:02:13.936Z,47.47
2023-02-07T06:07:16.944Z,47.70
2023-02-07T06:12:18.606Z,49.13
2023-02-07T06:17:20.266Z,51.70
2023-02-07T06:22:23.258Z,46.37
2023-02-07T06:27:24.996Z,48.53
2023-02-07T06:32:26.677Z,50.13
2023-02-07T06:37:29.676Z,46.17
2023-02-07T06:42:31.343Z,47.80
2023-02-07T06:47:33.082Z,46.50
2023-02-07T06:52:36.056Z,51.67
2023-02-07T06:57:37.725Z,50.17
2023-02-07T07:02:39.393Z,51.40
2023-02-07T07:07:42.373Z,54.90
2023-02-07T07:12:44.078Z,49.30
2023-02-07T07:17:45.756Z,47.33
2023-02-07T07:22:49.528Z,44.43
2023-02-07T07:27:52.182Z,42.17
2023-02-07T07:32:53.872Z,38.30
2023-02-07T07:37:56.876Z,44.90
2023-02-07T07:42:58.519Z,44.40
2023-02-07T07:48:09.786Z,44.17
2023-02-07T07:53:12.793Z,42.13
2023-02-07T07:58:14.482Z,42.60
2023-02-07T08:03:16.335Z,37.47
2023-02-07T08:08:22.205Z,46.70
2023-02-07T08:13:24.502Z,40.57
2023-02-07T08:18:27.588Z,37.50
2023-02-07T08:23:30.562Z,34.43
2023-02-07T08:28:32.215Z,41.63
2023-02-07T08:33:33.898Z,36.70
2023-02-07T08:38:36.936Z,34.47
2023-02-07T08:43:38.785Z,29.43
2023-02-07T08:48:40.432Z,29.87
2023-02-07T08:53:43.405Z,31.07
2023-02-07T08:58:45.612Z,28.57
2023-02-07T09:03:47.313Z,31.30
2023-02-07T09:08:50.382Z,30.00
2023-02-07T09:13:52.025Z,27.30
2023-02-07T09:18:53.751Z,26.45
2023-02-07T09:23:56.729Z,26.15
2023-02-07T09:28:58.422Z,26.63
2023-02-07T09:34:00.194Z,27.52
2023-02-07T09:39:03.486Z,24.95
2023-02-07T09:44:09.980Z,23.58
2023-02-07T09:49:15.864Z,25.40
2023-02-07T09:54:22.660Z,24.10
2023-02-07T09:59:26.126Z,22.73
2023-02-07T10:04:30.827Z,21.95
2023-02-07T10:09:37.784Z,21.77
2023-02-07T10:14:54.152Z,22.83
2023-02-07T10:19:59.763Z,22.10
2023-02-07T10:25:09.883Z,19.60
2023-02-07T10:30:11.846Z,22.40
2023-02-07T10:35:16.559Z,21.75
2023-02-07T10:40:22.608Z,21.98
2023-02-07T10:45:24.370Z,23.33
2023-02-07T10:50:30.117Z,22.92
2023-02-07T10:55:40.099Z,22.27
2023-02-07T11:00:42.023Z,18.60
2023-02-07T11:05:55.458Z,16.65
2023-02-07T11:10:59.129Z,20.13
2023-02-07T11:16:03.826Z,20.53
2023-02-07T11:21:06.761Z,21.40
2023-02-07T11:26:09.733Z,24.10
2023-02-07T11:31:14.498Z,24.80
2023-02-07T11:36:25.336Z,23.93
2023-02-07T11:41:31.217Z,24.20
2023-02-07T11:46:34.844Z,21.23
2023-02-07T11:51:36.562Z,23.17
2023-02-07T11:56:40.742Z,20.13
2023-02-07T12:01:44.706Z,25.33
2023-02-07T12:06:48.125Z,25.37
2023-02-07T12:11:51.224Z,26.77
2023-02-07T12:16:54.328Z,20.90
2023-02-07T12:21:58.626Z,14.90
2023-02-07T12:27:03.786Z,17.03
2023-02-07T12:32:08.911Z,17.73
2023-02-07T12:37:15.807Z,16.47
2023-02-07T12:42:27.016Z,19.53
2023-02-07T12:47:36.452Z,18.83
2023-02-07T12:52:43.179Z,22.17
2023-02-07T12:57:49.355Z,18.10
2023-02-07T13:02:56.981Z,17.70
2023-02-07T13:08:01.491Z,12.07
2023-02-07T13:13:06.421Z,12.93
2023-02-07T13:18:10.787Z,13.50
2023-02-07T13:23:15.687Z,14.87
2023-02-07T13:28:21.204Z,14.80
2023-02-07T13:33:27.007Z,19.90
2023-02-07T13:38:37.729Z,19.07
2023-02-07T13:43:48.794Z,22.20
2023-02-07T13:48:55.002Z,16.40
2023-02-07T13:53:59.385Z,23.13
2023-02-07T13:59:21.077Z,20.27
2023-02-07T14:04:22.922Z,21.53
2023-02-07T14:09:32.634Z,20.37
2023-02-07T14:14:36.926Z,18.53
2023-02-07T14:19:51.491Z,25.03
2023-02-07T14:25:19.002Z,23.20
2023-02-07T14:30:23.081Z,22.27
2023-02-07T14:35:33.472Z,22.20
2023-02-07T14:40:47.504Z,20.30
2023-02-07T14:46:01.939Z,17.80
2023-02-07T14:51:03.952Z,17.92
2023-02-07T14:56:06.094Z,25.33
2023-02-07T15:01:12.343Z,19.63
2023-02-07T15:06:23.763Z,22.57
2023-02-07T15:11:32.306Z,19.17
2023-02-07T15:16:38.338Z,28.53
2023-02-07T15:21:41.839Z,20.87
2023-02-07T15:26:43.496Z,21.27
2023-02-07T15:31:46.700Z,24.53
2023-02-07T15:36:49.171Z,22.50
2023-02-07T15:41:51.787Z,23.20
2023-02-07T15:46:55.713Z,23.30
2023-02-07T15:52:00.746Z,25.50
2023-02-07T15:57:02.461Z,35.03
2023-02-07T16:02:05.450Z,28.05
2023-02-07T16:07:07.818Z,32.87
2023-02-07T16:12:33.879Z,35.13
2023-02-07T16:17:42.028Z,29.07
2023-02-07T16:22:43.931Z,31.00
2023-02-07T16:27:46.456Z,27.93
2023-02-07T16:32:49.539Z,31.37
2023-02-07T16:37:51.412Z,34.23
2023-02-07T16:42:53.317Z,26.73
2023-02-07T16:47:56.586Z,35.97
2023-02-07T16:52:59.365Z,37.97
2023-02-07T16:58:01.074Z,36.73
2023-02-07T17:03:04.811Z,37.70
2023-02-07T17:08:06.460Z,32.00
2023-02-07T17:13:08.142Z,37.30
2023-02-07T17:18:11.622Z,35.37
2023-02-07T17:23:13.262Z,37.63
2023-02-07T17:28:18.167Z,42.03
2023-02-07T17:33:21.229Z,44.13
2023-02-07T17:38:22.883Z,57.97
2023-02-07T17:43:24.551Z,52.03
2023-02-07T17:48:30.314Z,33.90
2023-02-07T17:53:32.096Z,40.20
2023-02-07T17:58:37.841Z,36.80
2023-02-07T18:03:41.000Z,29.73
2023-02-07T18:08:42.828Z,26.93
2023-02-07T18:13:45.387Z,31.57
2023-02-07T18:18:48.372Z,27.53
2023-02-07T18:23:53.062Z,34.13
2023-02-07T18:28:54.810Z,40.23
2023-02-07T18:33:57.808Z,37.43
2023-02-07T18:39:00.101Z,40.80
2023-02-07T18:44:03.049Z,31.90
2023-02-07T18:49:06.061Z,40.90
2023-02-07T18:54:07.800Z,32.50
2023-02-07T18:59:10.307Z,39.80
2023-02-07T19:04:13.340Z,44.13
2023-02-07T19:09:16.096Z,55.50
2023-02-07T19:14:19.884Z,68.07
2023-02-07T19:19:23.514Z,56.93
2023-02-07T19:24:25.367Z,65.30
2023-02-07T19:29:29.235Z,42.80
2023-02-07T19:34:32.393Z,42.67
2023-02-07T19:39:34.076Z,39.57
2023-02-07T19:44:35.870Z,37.43
2023-02-07T19:49:38.911Z,41.83
2023-02-07T19:54:40.608Z,44.63
2023-02-07T19:59:42.626Z,40.07
2023-02-07T20:04:45.673Z,44.27
2023-02-07T20:09:47.757Z,46.57
2023-02-07T20:14:49.415Z,46.00
2023-02-07T20:19:53.742Z,47.87
2023-02-07T20:24:55.592Z,48.58
2023-02-07T20:29:57.474Z,51.30
2023-02-07T20:35:00.548Z,46.53
2023-02-07T20:40:02.291Z,48.60
2023-02-07T20:45:04.552Z,46.83
2023-02-07T20:50:08.363Z,50.47
2023-02-07T20:55:10.108Z,54.50
2023-02-07T21:00:13.205Z,49.83
2023-02-07T21:05:17.209Z,51.47
2023-02-07T21:10:19.065Z,57.47
2023-02-07T21:15:20.833Z,65.73
2023-02-07T21:20:23.979Z,50.00
2023-02-07T21:25:25.713Z,51.80
2023-02-07T21:30:27.458Z,48.93
2023-02-07T21:35:30.549Z,63.33
2023-02-07T21:40:33.410Z,56.57
2023-02-07T21:45:35.196Z,62.40
2023-02-07T21:50:38.635Z,63.47
2023-02-07T21:55:40.885Z,49.20
2023-02-07T22:00:42.694Z,48.57
2023-02-07T22:05:45.796Z,53.70
2023-02-07T22:10:47.457Z,60.10
2023-02-07T22:15:49.393Z,48.77
2023-02-07T22:20:52.380Z,48.20
2023-02-07T22:25:54.054Z,47.57
2023-02-07T22:30:55.822Z,53.43
2023-02-07T22:35:58.848Z,49.47
2023-02-07T22:41:02.282Z,50.03
2023-02-07T22:46:04.500Z,45.30
2023-02-07T22:51:18.874Z,53.57
2023-02-07T22:56:21.257Z,63.27
2023-02-07T23:01:24.088Z,53.13
2023-02-07T23:06:27.570Z,51.83
2023-02-07T23:11:29.305Z,63.40
2023-02-07T23:16:31.233Z,72.97
2023-02-07T23:21:34.564Z,75.73
2023-02-07T23:26:36.579Z,76.03
2023-02-07T23:31:38.355Z,74.03
2023-02-07T23:36:41.427Z,67.53
2023-02-07T23:41:43.141Z,67.72
2023-02-07T23:46:44.881Z,76.73
2023-02-07T23:51:47.928Z,66.50
2023-02-07T23:56:49.687Z,79.13
